Time;durP1;ratioP1;P1;durP2;ratioP2;P2;SDS_P1;SDS_P2;PMS_P1;PMS_P2;Temp;Humidity;BMP_temperature;BMP_pressure;BME280_temperature;BME280_humidity;BME280_pressure;Samples;Min_cycle;Max_cycle;Signal;HPM_P1;HPM_P2
2021/01/28 00:00:28;;;;;;;181.15;37.05;;;;;;;10.64;65.70;100988.94;4939477;28;114446;-69
2021/01/28 00:02:56;;;;;;;119.90;35.15;;;;;;;10.66;65.87;100987.06;4941226;28;124207;-69
2021/01/28 00:05:28;;;;;;;171.43;36.47;;;;;;;10.67;65.55;100977.34;4955017;28;125325;-70
2021/01/28 00:08:00;;;;;;;152.73;35.70;;;;;;;10.68;65.81;100985.22;4958111;28;114408;-70
2021/01/28 00:10:32;;;;;;;171.17;35.73;;;;;;;10.68;65.68;100997.56;4956506;28;114609;-69
2021/01/28 00:13:00;;;;;;;185.05;36.65;;;;;;;10.67;65.62;100988.78;4940152;28;127121;-70
2021/01/28 00:15:30;;;;;;;164.77;35.88;;;;;;;10.66;65.69;100992.38;4938568;28;122753;-70
2021/01/28 00:17:59;;;;;;;250.20;37.55;;;;;;;10.67;65.67;100994.06;4941045;28;114785;-69
2021/01/28 00:20:34;;;;;;;156.32;35.42;;;;;;;10.66;66.05;100992.38;4953419;28;113135;-70
2021/01/28 00:23:03;;;;;;;195.65;36.25;;;;;;;10.67;65.64;100987.94;4953742;28;124219;-70
2021/01/28 00:25:29;;;;;;;255.32;37.55;;;;;;;10.65;65.59;100980.03;4955072;28;126138;-70
2021/01/28 00:27:57;;;;;;;245.68;36.92;;;;;;;10.64;65.56;100973.03;4937470;28;114495;-70
2021/01/28 00:30:28;;;;;;;176.40;35.92;;;;;;;10.64;65.57;100957.16;4953640;28;114940;-69
2021/01/28 00:32:56;;;;;;;193.55;36.05;;;;;;;10.63;65.56;100955.41;4957214;28;124366;-70
2021/01/28 00:35:32;;;;;;;220.40;36.83;;;;;;;10.64;65.87;100949.19;4952936;28;123746;-69
2021/01/28 00:38:00;;;;;;;209.82;35.13;;;;;;;10.64;65.58;100941.25;4952852;28;114925;-69
2021/01/28 00:40:29;;;;;;;217.75;36.60;;;;;;;10.63;65.70;100923.63;4955976;28;113920;-69
2021/01/28 00:42:56;;;;;;;221.95;35.92;;;;;;;10.63;65.70;100923.63;4956552;28;124028;-68
2021/01/28 00:45:26;;;;;;;214.05;36.38;;;;;;;10.62;65.57;100916.59;4959718;28;123749;-68
2021/01/28 00:47:54;;;;;;;183.52;35.35;;;;;;;10.61;65.54;100914.91;4958298;28;113500;-68
2021/01/28 00:50:23;;;;;;;265.98;37.05;;;;;;;10.60;65.88;100913.16;4938138;28;114533;-69
2021/01/28 00:52:49;;;;;;;220.43;35.25;;;;;;;10.60;65.60;100918.44;4958715;28;123956;-68
2021/01/28 00:55:18;;;;;;;215.80;35.50;;;;;;;10.60;65.63;100917.59;4958330;28;124055;-68
2021/01/28 00:57:49;;;;;;;285.33;37.92;;;;;;;10.59;65.52;100922.03;4943400;28;112900;-68
2021/01/28 01:00:29;;;;;;;151.30;33.80;;;;;;;10.60;65.77;100913.16;4941442;28;113509;-69
2021/01/28 01:02:56;;;;;;;286.85;37.80;;;;;;;10.59;65.76;100911.44;4954693;28;124584;-69
2021/01/28 01:05:26;;;;;;;224.73;37.15;;;;;;;10.60;65.83;100907.00;4940418;28;123476;-68
2021/01/28 01:07:55;;;;;;;166.93;35.03;;;;;;;10.61;65.59;100914.91;4954692;28;113892;-69
2021/01/28 01:10:32;;;;;;;271.33;36.75;;;;;;;10.59;65.54;100903.50;4944340;28;115098;-69
2021/01/28 01:12:59;;;;;;;184.35;35.90;;;;;;;10.58;65.68;100899.13;4943278;28;122330;-69
2021/01/28 01:15:26;;;;;;;360.40;38.33;;;;;;;10.58;65.68;100899.13;4941300;28;122452;-69
2021/01/28 01:17:54;;;;;;;196.50;35.58;;;;;;;10.57;65.58;100886.81;4954419;28;115337;-69
2021/01/28 01:20:27;;;;;;;171.50;35.30;;;;;;;10.58;65.67;100877.94;4938375;28;114126;-69
2021/01/28 01:22:53;;;;;;;209.55;35.13;;;;;;;10.58;65.61;100872.63;4939280;28;123983;-69
2021/01/28 01:25:22;;;;;;;299.00;38.03;;;;;;;10.58;65.69;100867.34;4937553;28;124203;-69
2021/01/28 01:27:49;;;;;;;168.95;35.47;;;;;;;10.59;65.67;100863.78;4936579;28;114470;-69
2021/01/28 01:30:36;;;;;;;231.05;36.85;;;;;;;10.59;65.71;100858.47;4940509;28;113336;-69
2021/01/28 01:33:04;;;;;;;286.42;38.65;;;;;;;10.59;66.07;100862.94;4939863;28;123834;-69
2021/01/28 01:35:37;;;;;;;349.40;39.53;;;;;;;10.59;65.61;100857.63;4954684;28;125263;-69
2021/01/28 01:38:09;;;;;;;240.43;36.45;;;;;;;10.59;65.52;100853.19;4938034;28;113875;-69
2021/01/28 01:40:45;;;;;;;449.42;42.20;;;;;;;10.58;65.87;100845.31;4922442;28;113961;-69
2021/01/28 01:43:14;;;;;;;274.73;38.05;;;;;;;10.58;65.78;100835.56;4934359;28;123421;-68
2021/01/28 01:45:53;;;;;;;432.92;42.38;;;;;;;10.58;65.58;100830.25;4951231;28;126483;-69
2021/01/28 01:48:39;;;;;;;252.73;37.13;;;;;;;10.59;65.83;100837.28;4955365;28;113435;-70
2021/01/28 01:51:13;;;;;;;191.30;34.92;;;;;;;10.58;65.88;100840.88;4938344;28;114505;-69
2021/01/28 01:53:51;;;;;;;406.83;39.17;;;;;;;10.59;65.92;100841.75;4940527;28;123276;-70
2021/01/28 01:56:30;;;;;;;470.10;42.58;;;;;;;10.58;65.78;100840.88;4933078;28;123770;-69
2021/01/28 01:59:07;;;;;;;176.57;35.22;;;;;;;10.57;65.66;100823.28;4960762;28;115783;-69
2021/01/28 02:02:17;;;;;;;537.13;41.78;;;;;;;10.55;65.88;100819.84;4868606;28;114348;-69
2021/01/28 02:05:27;;;;;;;507.10;41.22;;;;;;;10.54;65.82;100802.22;4873798;28;125032;-69
2021/01/28 02:08:13;;;;;;;281.33;34.78;;;;;;;10.52;65.91;100796.13;4948441;28;125123;-69
2021/01/28 02:10:55;;;;;;;375.10;38.45;;;;;;;10.50;65.80;100808.59;4955387;28;115406;-69
2021/01/28 02:13:50;;;;;;;346.17;38.85;;;;;;;10.49;66.05;100798.91;4961895;28;115746;-69
2021/01/28 02:17:04;;;;;;;263.48;37.28;;;;;;;10.46;65.85;100788.47;4952532;28;124145;-69
2021/01/28 02:20:43;;;;;;;267.92;35.20;;;;;;;10.44;65.60;100771.81;4947314;28;123473;-69
2021/01/28 02:23:51;;;;;;;209.90;34.08;;;;;;;10.41;65.90;100779.88;4922109;28;114188;-69
2021/01/28 02:26:27;;;;;;;412.00;39.85;;;;;;;10.41;65.71;100774.56;4947567;28;113014;-69
2021/01/28 02:29:02;;;;;;;536.50;42.65;;;;;;;10.41;66.08;100774.56;4939823;28;123380;-70
2021/01/28 02:31:35;;;;;;;340.05;36.28;;;;;;;10.43;65.95;100756.81;4943667;28;122334;-69
2021/01/28 02:34:09;;;;;;;454.63;41.00;;;;;;;10.45;65.83;100749.66;4937773;28;113757;-70
2021/01/28 02:37:11;;;;;;;288.45;34.63;;;;;;;10.48;65.74;100741.59;4940621;28;113955;-70
2021/01/28 02:40:12;;;;;;;427.70;38.08;;;;;;;10.48;65.91;100723.06;4960979;28;125320;-70
2021/01/28 02:42:59;;;;;;;578.15;43.33;;;;;;;10.46;65.68;100714.34;4956456;28;124831;-70
2021/01/28 02:46:15;;;;;;;374.35;37.28;;;;;;;10.44;65.85;100710.91;4950742;28;114369;-70
2021/01/28 02:48:57;;;;;;;334.02;36.42;;;;;;;10.45;65.85;100717.91;4937549;28;114127;-70
2021/01/28 02:51:51;;;;;;;420.38;36.45;;;;;;;10.44;65.82;100708.25;4940098;28;123667;-68
2021/01/28 02:54:25;;;;;;;496.30;38.67;;;;;;;10.44;65.79;100710.91;4938814;28;123383;-68
2021/01/28 02:56:52;;;;;;;320.52;36.22;;;;;;;10.44;65.70;100702.97;4937690;28;113345;-68
2021/01/28 02:59:20;;;;;;;496.98;36.50;;;;;;;10.44;65.37;100695.00;4940754;28;113379;-69
2021/01/28 03:01:47;;;;;;;492.00;38.78;;;;;;;10.43;65.78;100701.22;4939995;28;123715;-68
2021/01/28 03:04:18;;;;;;;431.08;37.70;;;;;;;10.44;65.62;100700.31;4940931;28;123335;-69
2021/01/28 03:06:56;;;;;;;350.70;33.88;;;;;;;10.41;65.42;100696.00;4938676;28;114432;-69
2021/01/28 03:09:24;;;;;;;219.25;30.90;;;;;;;10.41;65.58;100705.75;4955141;28;114826;-68
2021/01/28 03:12:16;;;;;;;250.00;33.15;;;;;;;10.41;65.95;100711.88;4937566;28;123291;-68
2021/01/28 03:14:52;;;;;;;369.10;33.42;;;;;;;10.41;65.80;100716.31;4936683;28;122875;-69
2021/01/28 03:17:19;;;;;;;419.83;35.08;;;;;;;10.39;65.65;100707.59;4939978;28;113752;-68
2021/01/28 03:19:53;;;;;;;499.45;37.90;;;;;;;10.38;65.72;100706.75;4953800;28;111996;-69
2021/01/28 03:22:21;;;;;;;374.38;34.80;;;;;;;10.38;65.83;100711.16;4957440;28;124158;-68
2021/01/28 03:25:11;;;;;;;470.63;35.65;;;;;;;10.35;65.71;100700.75;4953987;28;124836;-69
2021/01/28 03:27:39;;;;;;;417.20;34.58;;;;;;;10.35;65.71;100700.75;4938720;28;113529;-69
2021/01/28 03:30:10;;;;;;;473.73;34.55;;;;;;;10.32;65.59;100702.59;4954111;28;113582;-69
2021/01/28 03:32:37;;;;;;;330.90;32.22;;;;;;;10.31;65.79;100695.56;4951437;28;124033;-69
2021/01/28 03:35:05;;;;;;;593.00;39.10;;;;;;;10.31;65.67;100679.69;4935727;28;123504;-69
2021/01/28 03:37:32;;;;;;;400.50;35.30;;;;;;;10.31;65.79;100671.75;4937717;28;113415;-68
2021/01/28 03:40:00;;;;;;;458.65;33.97;;;;;;;10.29;65.54;100676.22;4939978;28;113556;-69
2021/01/28 03:42:28;;;;;;;380.48;33.65;;;;;;;10.29;65.82;100676.22;4953379;28;124254;-69
2021/01/28 03:44:56;;;;;;;319.67;32.25;;;;;;;10.29;65.88;100676.22;4958280;28;124070;-69
2021/01/28 03:47:26;;;;;;;250.23;30.00;;;;;;;10.29;65.77;100665.63;4951586;28;113498;-68
2021/01/28 03:50:18;;;;;;;464.30;35.40;;;;;;;10.29;65.58;100660.34;4961194;28;113504;-69
2021/01/28 03:53:05;;;;;;;226.20;29.02;;;;;;;10.28;65.60;100656.00;4953832;28;124353;-69
2021/01/28 03:56:07;;;;;;;425.38;33.22;;;;;;;10.28;65.63;100634.81;4929504;28;124247;-68
2021/01/28 03:58:35;;;;;;;404.85;33.42;;;;;;;10.27;65.76;100635.75;4934630;28;114304;-69
2021/01/28 04:01:20;;;;;;;271.20;29.90;;;;;;;10.26;65.47;100628.72;4959259;28;115707;-68
2021/01/28 04:03:50;;;;;;;457.45;35.67;;;;;;;10.26;65.55;100622.56;4943659;28;122442;-69
2021/01/28 04:06:35;;;;;;;306.53;30.73;;;;;;;10.23;65.69;100623.59;4958160;28;125171;-68
2021/01/28 04:09:11;;;;;;;488.98;35.72;;;;;;;10.22;65.65;100616.56;4941733;28;114286;-68
2021/01/28 04:11:54;;;;;;;448.88;34.40;;;;;;;10.19;65.80;100616.72;4937041;28;114143;-68
2021/01/28 04:14:40;;;;;;;492.52;34.55;;;;;;;10.19;65.63;100622.03;4921172;28;123259;-68
2021/01/28 04:17:11;;;;;;;373.35;32.00;;;;;;;10.18;65.89;100609.69;4942357;28;123662;-69
2021/01/28 04:19:39;;;;;;;485.45;36.22;;;;;;;10.17;65.50;100608.00;4952961;28;113525;-68
2021/01/28 04:22:05;;;;;;;474.40;33.90;;;;;;;10.18;65.71;100599.13;4942338;28;114008;-68
2021/01/28 04:24:35;;;;;;;503.85;36.95;;;;;;;10.18;65.60;100592.97;4959085;28;123301;-68
2021/01/28 04:27:04;;;;;;;447.67;35.03;;;;;;;10.14;65.89;100592.25;4954276;28;123816;-68
2021/01/28 04:29:53;;;;;;;335.50;31.63;;;;;;;10.12;65.65;100583.53;4950262;28;114032;-68
2021/01/28 04:32:26;;;;;;;410.10;34.65;;;;;;;10.10;65.75;100577.47;4936916;28;113313;-68
2021/01/28 04:35:22;;;;;;;385.92;34.50;;;;;;;10.07;65.91;100573.16;4942878;28;124637;-68
2021/01/28 04:37:50;;;;;;;449.17;36.15;;;;;;;10.06;65.85;100567.97;4940698;28;123948;-70
2021/01/28 04:40:34;;;;;;;327.13;31.92;;;;;;;10.03;65.70;100558.34;4941355;28;112395;-69
2021/01/28 04:43:21;;;;;;;420.50;34.78;;;;;;;10.01;65.60;100548.78;4937585;28;113057;-69
2021/01/28 04:46:06;;;;;;;537.90;38.88;;;;;;;9.99;65.77;100550.66;4953490;28;123358;-69
2021/01/28 04:48:39;;;;;;;446.08;35.15;;;;;;;9.98;65.68;100535.69;4938141;28;123355;-69
2021/01/28 04:51:30;;;;;;;486.38;36.80;;;;;;;9.96;65.70;100529.63;4939170;28;114856;-69
2021/01/28 04:54:08;;;;;;;233.90;30.35;;;;;;;9.97;65.71;100536.66;4957035;28;115357;-69
2021/01/28 04:56:38;;;;;;;337.88;33.53;;;;;;;9.98;65.76;100533.06;4940314;28;123222;-70
2021/01/28 04:59:31;;;;;;;496.27;37.55;;;;;;;9.97;65.86;100523.41;4948742;28;122977;-69
2021/01/28 05:02:00;;;;;;;389.55;33.72;;;;;;;9.97;65.96;100507.53;4939060;28;113271;-69
2021/01/28 05:04:57;;;;;;;552.90;38.78;;;;;;;9.93;65.99;100502.38;4938773;28;112919;-69
2021/01/28 05:07:46;;;;;;;262.33;30.27;;;;;;;9.93;65.80;100502.38;4954043;28;123165;-70
2021/01/28 05:10:36;;;;;;;442.65;34.97;;;;;;;9.90;65.82;100489.28;4951375;28;124405;-69
2021/01/28 05:13:40;;;;;;;422.70;33.13;;;;;;;9.87;65.91;100476.25;4952723;28;115514;-69
2021/01/28 05:16:47;;;;;;;450.83;34.75;;;;;;;9.86;65.81;100466.56;4954472;28;113609;-69
2021/01/28 05:19:38;;;;;;;301.33;30.98;;;;;;;9.85;66.15;100464.00;4942564;28;124565;-68
2021/01/28 05:22:30;;;;;;;358.88;31.33;;;;;;;9.83;65.93;100450.88;4955612;28;123807;-68
2021/01/28 05:25:29;;;;;;;204.90;26.07;;;;;;;9.81;65.97;100447.41;4945530;28;113697;-68
2021/01/28 05:28:41;;;;;;;358.27;29.80;;;;;;;9.81;65.96;100436.84;4960144;28;116428;-69
2021/01/28 05:31:31;;;;;;;236.05;27.30;;;;;;;9.83;65.75;100435.00;4941253;28;124864;-69
2021/01/28 05:34:32;;;;;;;196.05;24.42;;;;;;;9.81;65.97;100420.97;4956795;28;123916;-68
2021/01/28 05:37:06;;;;;;;129.35;24.33;;;;;;;9.82;65.91;100416.56;4988559;22;114798;-70
2021/01/28 05:40:18;;;;;;;138.27;22.83;;;;;;;9.81;65.73;100405.09;4931299;28;113951;-69
2021/01/28 05:42:55;;;;;;;97.90;22.50;;;;;;;9.82;65.64;100395.41;4937236;28;124028;-69
2021/01/28 05:45:33;;;;;;;160.85;24.92;;;;;;;9.80;65.92;100387.53;4933138;28;123530;-69
2021/01/28 05:48:30;;;;;;;109.72;22.38;;;;;;;9.77;65.85;100387.66;4932635;28;114068;-69
2021/01/28 05:51:35;;;;;;;97.03;21.98;;;;;;;9.75;65.81;100374.53;4934742;28;115325;-69
2021/01/28 05:54:15;;;;;;;122.00;23.40;;;;;;;9.74;65.93;100369.34;4929765;28;123358;-69
2021/01/28 05:56:57;;;;;;;87.05;21.20;;;;;;;9.73;65.63;100359.66;4915683;28;122953;-69
2021/01/28 06:00:09;;;;;;;93.57;21.02;;;;;;;9.70;65.70;100349.22;4913723;28;113944;-69
2021/01/28 06:03:22;;;;;;;64.50;18.48;;;;;;;9.69;65.71;100352.81;4898761;28;114548;-69
2021/01/28 06:06:19;;;;;;;46.60;17.10;;;;;;;9.67;65.76;100349.41;4873135;28;124875;-69
2021/01/28 06:09:29;;;;;;;52.25;17.13;;;;;;;9.64;66.12;100333.69;4857692;28;123157;-69
2021/01/28 06:12:33;;;;;;;57.90;18.00;;;;;;;9.61;66.07;100324.13;4912569;28;113967;-69
2021/01/28 06:15:31;;;;;;;57.78;17.75;;;;;;;9.59;65.91;100315.41;4886355;28;113247;-69
2021/01/28 06:18:37;;;;;;;41.13;15.18;;;;;;;9.58;66.05;100312.84;4931747;28;123665;-69
2021/01/28 06:21:45;;;;;;;43.78;15.73;;;;;;;9.57;65.97;100311.13;4936955;28;123473;-69
2021/01/28 06:25:06;;;;;;;39.55;14.65;;;;;;;9.52;66.06;100304.28;4932923;28;114583;-69
2021/01/28 06:28:03;;;;;;;37.97;14.02;;;;;;;9.53;66.15;100311.28;4916043;28;112523;-69
2021/01/28 06:30:49;;;;;;;33.90;14.15;;;;;;;9.52;66.15;100292.84;4930627;28;123164;-69
2021/01/28 06:34:01;;;;;;;41.40;13.90;;;;;;;9.51;65.95;100294.66;4932418;28;123324;-69
2021/01/28 06:37:01;;;;;;;45.80;13.73;;;;;;;9.54;65.88;100283.91;4933187;28;115113;-69
2021/01/28 06:39:56;;;;;;;42.20;14.48;;;;;;;9.57;66.10;100279.38;4914330;28;113003;-69
2021/01/28 06:43:14;;;;;;;41.28;13.93;;;;;;;9.59;65.88;100269.59;4933555;28;124834;-69
2021/01/28 06:46:08;;;;;;;36.92;13.93;;;;;;;9.61;66.26;100265.13;4920644;28;124681;-69
2021/01/28 06:48:47;;;;;;;37.38;13.85;;;;;;;9.64;66.12;100259.66;4914937;28;114634;-69
2021/01/28 06:51:36;;;;;;;42.45;13.98;;;;;;;9.64;65.82;100249.06;4916202;28;114834;-68
2021/01/28 06:54:12;;;;;;;35.45;14.40;;;;;;;9.64;66.03;100244.63;4929216;28;123820;-70
2021/01/28 06:57:12;;;;;;;34.15;13.50;;;;;;;9.63;65.53;100226.22;4930785;28;124700;-70
2021/01/28 07:00:16;;;;;;;27.25;12.07;;;;;;;9.64;65.72;100222.63;4922627;28;114412;-70
2021/01/28 07:02:52;;;;;;;34.08;13.50;;;;;;;9.63;65.96;100231.50;4929151;28;113011;-70
2021/01/28 07:05:54;;;;;;;34.05;13.07;;;;;;;9.64;65.68;100227.91;4930383;28;123206;-70
2021/01/28 07:08:46;;;;;;;31.85;13.13;;;;;;;9.64;65.51;100218.19;4894406;28;123355;-70
2021/01/28 07:11:24;;;;;;;37.23;13.13;;;;;;;9.66;65.75;100196.97;4928188;28;113711;-70
2021/01/28 07:14:15;;;;;;;25.85;12.27;;;;;;;9.64;65.70;100190.91;4931741;28;114197;-70
2021/01/28 07:17:24;;;;;;;26.85;12.60;;;;;;;9.63;65.71;100186.56;4913989;28;122559;-70
2021/01/28 07:19:55;;;;;;;24.45;12.60;;;;;;;9.61;65.43;100172.56;4915245;28;123697;-70
2021/01/28 07:22:38;;;;;;;28.65;13.40;;;;;;;9.58;65.69;100164.78;4931188;28;113423;-70
2021/01/28 07:25:24;;;;;;;20.38;12.05;;;;;;;9.57;65.56;100173.66;4916307;28;113312;-71
2021/01/28 07:28:06;;;;;;;21.13;11.63;;;;;;;9.55;65.87;100156.09;4929737;28;123227;-70
2021/01/28 07:30:48;;;;;;;20.58;11.10;;;;;;;9.57;65.79;100147.22;4930705;28;123796;-70
2021/01/28 07:33:23;;;;;;;22.50;10.93;;;;;;;9.55;65.57;100145.53;4931242;28;114960;-70
2021/01/28 07:36:23;;;;;;;18.92;10.63;;;;;;;9.56;65.79;100143.72;4852329;28;96992;-71
2021/01/28 07:39:28;;;;;;;23.50;11.65;;;;;;;9.54;65.63;100130.56;4932429;28;124855;-71
2021/01/28 07:42:25;;;;;;;22.25;10.77;;;;;;;9.55;65.59;100124.38;4913919;28;125295;-71
2021/01/28 07:45:25;;;;;;;20.63;10.63;;;;;;;9.57;65.73;100120.78;4894134;28;115617;-71
2021/01/28 07:47:59;;;;;;;19.60;10.93;;;;;;;9.57;65.65;100120.78;4885054;28;114824;-69
2021/01/28 07:50:46;;;;;;;18.30;9.93;;;;;;;9.54;65.71;100106.78;4928271;28;124087;-69
2021/01/28 07:53:36;;;;;;;20.48;10.43;;;;;;;9.52;65.67;100108.66;4882338;28;124177;-69
2021/01/28 07:56:04;;;;;;;24.05;10.77;;;;;;;9.53;65.86;100113.03;4928901;28;114344;-69
2021/01/28 07:58:34;;;;;;;19.25;10.27;;;;;;;9.52;65.70;100098.09;4931137;28;114232;-69
2021/01/28 08:01:10;;;;;;;17.58;9.82;;;;;;;9.51;65.88;100091.09;4929018;28;122492;-70
2021/01/28 08:04:01;;;;;;;20.67;9.60;;;;;;;9.52;65.64;100097.25;4928855;28;123798;-69
2021/01/28 08:06:30;;;;;;;17.33;8.95;;;;;;;9.52;65.70;100103.38;4914153;28;113859;-69
2021/01/28 08:09:09;;;;;;;18.30;9.25;;;;;;;9.52;65.57;100102.53;4931020;28;113301;-69
2021/01/28 08:11:37;;;;;;;21.08;9.32;;;;;;;9.53;65.91;100105.09;4931019;28;124423;-69
2021/01/28 08:14:07;;;;;;;17.40;9.02;;;;;;;9.53;65.88;100105.09;4912092;28;122852;-69
2021/01/28 08:16:33;;;;;;;16.73;8.75;;;;;;;9.54;65.74;100101.50;4931339;28;114225;-69
2021/01/28 08:19:09;;;;;;;19.55;8.65;;;;;;;9.54;65.99;100096.22;4913236;28;114115;-70
2021/01/28 08:21:37;;;;;;;14.77;8.00;;;;;;;9.57;65.73;100091.69;4931324;28;123222;-69
2021/01/28 08:24:34;;;;;;;16.45;8.65;;;;;;;9.57;65.65;100089.06;4931287;28;123670;-70
2021/01/28 08:27:19;;;;;;;12.05;7.43;;;;;;;9.57;65.73;100089.06;4932677;28;113500;-70
2021/01/28 08:30:09;;;;;;;12.27;6.80;;;;;;;9.57;65.94;100089.06;4931889;28;114606;-69
2021/01/28 08:32:37;;;;;;;13.50;7.03;;;;;;;9.57;65.97;100078.47;4914290;28;123840;-69
2021/01/28 08:35:08;;;;;;;16.60;7.35;;;;;;;9.57;65.95;100083.75;4929732;28;124019;-71
2021/01/28 08:37:35;;;;;;;15.05;7.00;;;;;;;9.57;65.92;100079.34;4913006;28;115566;-69
2021/01/28 08:40:12;;;;;;;14.30;6.90;;;;;;;9.59;65.57;100066.03;4931366;28;114920;-69
2021/01/28 08:42:38;;;;;;;13.02;7.57;;;;;;;9.59;65.78;100066.03;4899546;28;123990;-69
2021/01/28 08:45:29;;;;;;;14.55;7.13;;;;;;;9.56;65.74;100061.78;4935010;28;124139;-70
2021/01/28 08:48:06;;;;;;;11.63;6.70;;;;;;;9.58;65.71;100064.34;4911605;28;113844;-70
2021/01/28 08:50:33;;;;;;;13.55;7.40;;;;;;;9.58;65.92;100056.41;4928339;28;114396;-70
2021/01/28 08:53:21;;;;;;;12.45;7.45;;;;;;;9.55;65.77;100055.63;4931565;28;124753;-70
2021/01/28 08:55:49;;;;;;;11.27;7.20;;;;;;;9.55;65.65;100054.78;4930015;28;122945;-70
2021/01/28 08:58:37;;;;;;;10.80;6.65;;;;;;;9.50;65.62;100047.09;4931496;28;115008;-70
2021/01/28 09:01:05;;;;;;;9.07;6.03;;;;;;;9.51;65.70;100040.88;4914027;28;112860;-70
2021/01/28 09:03:53;;;;;;;9.68;5.57;;;;;;;9.49;65.91;100029.53;4916302;28;123926;-70
2021/01/28 09:06:20;;;;;;;12.82;6.32;;;;;;;9.50;65.97;100020.66;4931087;28;124283;-70
2021/01/28 09:09:00;;;;;;;9.07;5.90;;;;;;;9.47;65.72;100020.81;4935568;28;114247;-70
2021/01/28 09:11:30;;;;;;;9.48;6.13;;;;;;;9.46;65.86;100008.56;4932728;28;114720;-69
2021/01/28 09:14:03;;;;;;;8.68;6.05;;;;;;;9.45;65.86;100006.81;4902520;28;123729;-70
2021/01/28 09:16:30;;;;;;;9.52;6.15;;;;;;;9.46;66.00;100008.56;4934888;28;124699;-70
2021/01/28 09:19:12;;;;;;;12.90;6.20;;;;;;;9.45;66.00;99998.91;4918783;28;114783;-70
2021/01/28 09:21:41;;;;;;;9.77;5.43;;;;;;;9.47;65.93;99991.75;4917831;28;113508;-70
2021/01/28 09:24:26;;;;;;;8.15;5.50;;;;;;;9.47;65.57;99989.09;4933600;28;123726;-69
2021/01/28 09:27:20;;;;;;;9.73;5.07;;;;;;;9.45;65.83;99990.97;4912114;28;123862;-70
2021/01/28 09:29:49;;;;;;;7.88;5.25;;;;;;;9.46;65.55;100002.41;4915934;28;114242;-69
2021/01/28 09:32:19;;;;;;;10.73;5.32;;;;;;;9.46;65.71;99997.97;4929290;28;115134;-69
2021/01/28 09:35:09;;;;;;;8.73;5.57;;;;;;;9.44;65.64;100005.13;4915338;28;123126;-69
2021/01/28 09:37:37;;;;;;;7.68;5.50;;;;;;;9.46;65.74;100002.41;4931872;28;123958;-70
2021/01/28 09:40:18;;;;;;;8.23;5.28;;;;;;;9.45;65.70;100001.53;4933481;28;113007;-70
2021/01/28 09:42:45;;;;;;;9.60;5.20;;;;;;;9.46;65.73;100002.41;4931148;28;113741;-70
2021/01/28 09:45:22;;;;;;;8.32;5.10;;;;;;;9.46;65.81;100008.56;4917084;28;123413;-70
2021/01/28 09:47:56;;;;;;;7.38;5.50;;;;;;;9.45;66.10;99996.25;4932087;28;123888;-70
2021/01/28 09:50:25;;;;;;;7.22;5.18;;;;;;;9.47;65.74;99994.38;4934942;28;113674;-70
2021/01/28 09:52:52;;;;;;;7.40;6.00;;;;;;;9.48;65.57;99996.09;4933163;28;113581;-70
2021/01/28 09:55:21;;;;;;;7.07;5.63;;;;;;;9.48;65.56;99990.81;4930285;28;125177;-70
2021/01/28 09:57:50;;;;;;;7.03;6.10;;;;;;;9.48;65.60;99996.09;4933859;28;123840;-69
2021/01/28 10:00:21;;;;;;;10.52;7.00;;;;;;;9.49;65.81;99987.25;4906622;28;113001;-69
2021/01/28 10:02:58;;;;;;;6.78;5.80;;;;;;;9.51;65.61;99985.38;4923531;28;114598;-71
2021/01/28 10:05:28;;;;;;;8.13;6.15;;;;;;;9.50;65.77;99973.09;4913323;28;124527;-69
2021/01/28 10:07:55;;;;;;;7.88;5.78;;;;;;;9.51;65.63;99969.50;4933473;28;122795;-70
2021/01/28 10:10:27;;;;;;;7.97;6.10;;;;;;;9.50;65.49;99967.78;4929324;28;114434;-70
2021/01/28 10:12:57;;;;;;;13.60;6.43;;;;;;;9.48;65.51;99964.38;4924834;28;114219;-69
2021/01/28 10:15:24;;;;;;;8.43;5.90;;;;;;;9.46;65.46;99960.97;4922696;28;124652;-70
2021/01/28 10:17:52;;;;;;;7.60;6.72;;;;;;;9.45;65.51;99964.53;4922647;28;124474;-69
2021/01/28 10:20:19;;;;;;;8.75;6.25;;;;;;;9.44;65.57;99962.00;4929169;28;115089;-69
2021/01/28 10:22:47;;;;;;;8.13;6.40;;;;;;;9.41;65.51;99959.53;4929977;28;115145;-71
2021/01/28 10:25:16;;;;;;;9.90;6.95;;;;;;;9.41;65.75;99957.72;4914753;28;123214;-70
2021/01/28 10:27:43;;;;;;;9.02;6.90;;;;;;;9.39;65.44;99949.03;4913882;28;124226;-69
2021/01/28 10:30:13;;;;;;;10.07;6.97;;;;;;;9.39;65.78;99954.31;4931757;28;114210;-69
2021/01/28 10:32:42;;;;;;;9.57;7.20;;;;;;;9.39;65.57;99943.75;4914485;28;113863;-70
2021/01/28 10:35:12;;;;;;;10.95;7.50;;;;;;;9.40;65.57;99944.59;4930882;28;123219;-70
2021/01/28 10:37:38;;;;;;;11.20;7.25;;;;;;;9.40;65.50;99940.19;4937152;28;123781;-70
2021/01/28 10:40:06;;;;;;;12.40;7.32;;;;;;;9.42;65.40;99943.59;4940200;28;114451;-70
2021/01/28 10:42:40;;;;;;;13.13;7.78;;;;;;;9.42;65.46;99948.88;4937798;28;114599;-70
2021/01/28 10:45:10;;;;;;;9.55;6.72;;;;;;;9.44;65.69;99941.72;4934423;28;124451;-70
2021/01/28 10:47:37;;;;;;;9.25;7.13;;;;;;;9.45;65.60;99930.19;4931718;28;123766;-70
2021/01/28 10:50:15;;;;;;;7.95;6.40;;;;;;;9.46;65.61;99934.53;4930354;28;112941;-69
2021/01/28 10:52:45;;;;;;;9.95;6.75;;;;;;;9.47;65.34;99936.22;4951579;28;114369;-69
2021/01/28 10:55:12;;;;;;;8.38;6.07;;;;;;;9.49;65.62;99934.38;4926617;28;123806;-69
2021/01/28 10:57:38;;;;;;;8.60;6.38;;;;;;;9.50;65.47;99941.38;4931132;28;121754;-70
2021/01/28 11:00:06;;;;;;;10.07;6.38;;;;;;;9.52;65.64;99939.47;4936410;28;114549;-69
2021/01/28 11:02:32;;;;;;;7.93;6.68;;;;;;;9.53;65.51;99933.28;4932761;28;114577;-70
2021/01/28 11:04:59;;;;;;;13.32;6.80;;;;;;;9.53;65.36;99930.63;4940010;28;123390;-69
2021/01/28 11:07:26;;;;;;;10.43;6.88;;;;;;;9.54;65.54;99937.59;4930773;28;124211;-69
2021/01/28 11:09:53;;;;;;;10.00;6.68;;;;;;;9.55;65.49;99917.34;4943463;28;115674;-69
2021/01/28 11:12:19;;;;;;;8.00;6.57;;;;;;;9.56;65.29;99934.88;4932679;28;115677;-69
2021/01/28 11:14:46;;;;;;;7.95;6.53;;;;;;;9.55;65.45;99944.63;4961465;28;123991;-69
2021/01/28 11:17:12;;;;;;;9.40;7.35;;;;;;;9.55;65.35;99939.31;4940317;28;123585;-69
2021/01/28 11:19:39;;;;;;;9.52;7.22;;;;;;;9.55;65.60;99941.97;4919811;28;113342;-69
2021/01/28 11:22:05;;;;;;;8.90;6.75;;;;;;;9.53;65.42;99930.63;4939135;28;112917;-69
2021/01/28 11:24:33;;;;;;;7.63;6.63;;;;;;;9.52;65.31;99926.28;4949890;28;123910;-69
2021/01/28 11:27:00;;;;;;;10.60;7.38;;;;;;;9.52;65.67;99913.06;4930111;28;124552;-70
2021/01/28 11:29:27;;;;;;;9.10;7.45;;;;;;;9.53;65.47;99920.06;4928837;28;114464;-70
2021/01/28 11:31:54;;;;;;;11.43;8.48;;;;;;;9.54;65.69;99921.75;4913454;28;114339;-70
2021/01/28 11:34:21;;;;;;;14.10;10.63;;;;;;;9.55;65.67;99923.47;4927766;28;124143;-71
2021/01/28 11:36:49;;;;;;;15.55;11.10;;;;;;;9.54;65.52;99921.75;4925330;28;123820;-71
2021/01/28 11:42:11;;;;;;;13.27;10.20;;;;;;;9.47;65.53;99919.53;5066169;23;98437;-79
2021/01/28 11:48:58;;;;;;;13.75;9.77;;;;;;;9.44;65.92;99931.13;4862691;29;124505;-79
2021/01/28 11:51:27;;;;;;;12.93;9.90;;;;;;;9.44;65.48;99920.56;4859430;28;113014;-79
2021/01/28 11:54:52;;;;;;;12.60;9.80;;;;;;;9.46;65.74;99925.78;4861945;29;112612;-79
2021/01/28 12:20:53;;;;;;;15.15;11.63;;;;;;;9.59;66.19;99880.97;4925011;23;96540;-78
2021/01/28 12:23:20;;;;;;;13.88;11.07;;;;;;;9.61;66.03;99879.13;4818838;29;123635;-78
2021/01/28 12:25:46;;;;;;;15.70;11.13;;;;;;;9.64;66.37;99873.66;4838930;29;123699;-78
2021/01/28 12:28:15;;;;;;;14.60;10.57;;;;;;;9.65;65.98;99867.44;4812781;29;114176;-78
2021/01/28 12:30:42;;;;;;;15.73;11.05;;;;;;;9.69;66.05;99876.88;4833186;29;114775;-80